Time;durP1;ratioP1;P1;durP2;ratioP2;P2;SDS_P1;SDS_P2;PMS_P1;PMS_P2;Temp;Humidity;BMP_temperature;BMP_pressure;BME280_temperature;BME280_humidity;BME280_pressure;Samples;Min_cycle;Max_cycle;Signal;HPM_P1;HPM_P2
2022/02/05 00:00:25;;;;;;;13.25;5.32;;;;;;;;;;6236906;23;20012;-94
2022/02/05 00:05:23;;;;;;;9.87;5.37;;;;;;;;;;6242997;23;20062;-92
2022/02/05 00:08:07;;;;;;;17.25;6.97;;;;;;;;;;6242745;23;20340;-95
2022/02/05 00:11:03;;;;;;;16.80;5.20;;;;;;;;;;6238932;23;20363;-94
2022/02/05 00:43:17;;;;;;;12.35;5.82;;;;;;;;;;6181022;23;20073;-92
2022/02/05 00:45:48;;;;;;;10.40;4.43;;;;;;;;;;6182305;23;20001;-93
2022/02/05 00:48:14;;;;;;;10.85;5.00;;;;;;;;;;6178853;23;20982;-94
2022/02/05 00:50:46;;;;;;;11.50;4.82;;;;;;;;;;6177642;23;20005;-94
2022/02/05 00:53:34;;;;;;;11.32;4.72;;;;;;;;;;6181517;23;20005;-94
2022/02/05 00:58:29;;;;;;;13.68;3.95;;;;;;;;;;6177204;23;20009;-93
2022/02/05 01:00:56;;;;;;;6.93;3.20;;;;;;;;;;6179130;23;20016;-94
2022/02/05 01:03:22;;;;;;;6.32;4.25;;;;;;;;;;6181549;23;20009;-93
2022/02/05 01:05:48;;;;;;;7.57;4.28;;;;;;;;;;6181782;23;20005;-92
2022/02/05 01:08:17;;;;;;;7.15;3.83;;;;;;;;;;6154599;23;20064;-94
2022/02/05 01:10:43;;;;;;;13.38;5.28;;;;;;;;;;6177421;23;20104;-93
2022/02/05 01:13:11;;;;;;;5.45;3.15;;;;;;;;;;6182312;23;20092;-93
2022/02/05 01:15:53;;;;;;;8.57;4.07;;;;;;;;;;6180843;23;20711;-93
2022/02/05 01:18:21;;;;;;;12.25;5.30;;;;;;;;;;6179323;23;20016;-92
2022/02/05 01:21:07;;;;;;;8.32;3.60;;;;;;;;;;6228737;23;20087;-94
2022/02/05 01:23:49;;;;;;;9.00;3.88;;;;;;;;;;6244404;23;20444;-93
2022/02/05 01:26:23;;;;;;;15.10;4.88;;;;;;;;;;6244493;23;20008;-95
2022/02/05 01:28:57;;;;;;;11.60;5.32;;;;;;;;;;6239234;23;20299;-94
2022/02/05 01:31:27;;;;;;;13.73;5.25;;;;;;;;;;6216036;23;20051;-93
2022/02/05 01:34:08;;;;;;;13.27;3.88;;;;;;;;;;6217601;23;20016;-92
2022/02/05 01:50:41;;;;;;;6.45;2.58;;;;;;;;;;6174896;23;20016;-93
2022/02/05 01:53:22;;;;;;;8.35;3.00;;;;;;;;;;6181394;23;20013;-93
2022/02/05 01:55:59;;;;;;;10.25;3.00;;;;;;;;;;6155800;23;20033;-93
2022/02/05 01:58:40;;;;;;;5.25;3.08;;;;;;;;;;6178163;23;20012;-93
2022/02/05 02:07:04;;;;;;;4.60;2.55;;;;;;;;;;6179872;23;20055;-93
2022/02/05 02:12:14;;;;;;;5.47;3.17;;;;;;;;;;6179579;23;20104;-93
2022/02/05 02:20:25;;;;;;;11.52;4.65;;;;;;;;;;6226093;23;20410;-93
2022/02/05 02:23:31;;;;;;;7.03;4.28;;;;;;;;;;6243598;22;20012;-94
2022/02/05 02:25:56;;;;;;;7.88;5.10;;;;;;;;;;6240102;22;20471;-93
2022/02/05 02:28:33;;;;;;;14.13;4.65;;;;;;;;;;6240061;23;20011;-93
2022/02/05 02:31:06;;;;;;;10.00;4.80;;;;;;;;;;6240795;23;20039;-93
2022/02/05 02:33:37;;;;;;;11.55;6.25;;;;;;;;;;6217719;23;20350;-92
2022/02/05 02:36:08;;;;;;;16.90;4.82;;;;;;;;;;6242627;23;20419;-94
2022/02/05 02:38:46;;;;;;;6.85;3.97;;;;;;;;;;6239075;23;20007;-93
2022/02/05 02:41:19;;;;;;;7.05;3.92;;;;;;;;;;6214664;23;20471;-95
2022/02/05 02:43:45;;;;;;;5.13;3.55;;;;;;;;;;6243865;23;20038;-94
2022/02/05 02:46:11;;;;;;;6.75;2.30;;;;;;;;;;6216523;23;20037;-93
2022/02/05 02:48:42;;;;;;;6.35;3.28;;;;;;;;;;6212486;23;20008;-93
2022/02/05 02:56:31;;;;;;;7.47;4.50;;;;;;;;;;6243638;23;20019;-93
2022/02/05 02:59:04;;;;;;;8.85;5.68;;;;;;;;;;6238795;23;20008;-92
2022/02/05 03:01:35;;;;;;;7.03;4.10;;;;;;;;;;6242456;23;20012;-93
2022/02/05 03:04:01;;;;;;;11.68;4.13;;;;;;;;;;6244295;23;19996;-92
2022/02/05 03:06:27;;;;;;;8.02;4.30;;;;;;;;;;6216357;23;20347;-93
2022/02/05 03:08:53;;;;;;;9.48;4.75;;;;;;;;;;6238663;23;20066;-93
2022/02/05 03:11:19;;;;;;;5.10;4.35;;;;;;;;;;6242736;23;20016;-93
2022/02/05 03:13:48;;;;;;;7.95;3.45;;;;;;;;;;6242843;23;20004;-94
2022/02/05 03:16:27;;;;;;;4.60;2.95;;;;;;;;;;6244623;23;20015;-93
2022/02/05 03:21:22;;;;;;;4.40;3.53;;;;;;;;;;6242790;23;20020;-95
2022/02/05 03:23:48;;;;;;;1.02;0.95;;;;;;;;;;6243210;23;20027;-96
2022/02/05 03:26:15;;;;;;;1.50;1.40;;;;;;;;;;6244215;23;20079;-93
2022/02/05 03:28:41;;;;;;;1.42;1.30;;;;;;;;;;6210643;23;20083;-93
2022/02/05 03:31:07;;;;;;;1.60;0.85;;;;;;;;;;6242736;23;20043;-93
2022/02/05 03:33:33;;;;;;;3.03;0.85;;;;;;;;;;6242761;23;20004;-93
2022/02/05 03:35:59;;;;;;;1.45;1.13;;;;;;;;;;6216294;23;20011;-93
2022/02/05 03:38:25;;;;;;;1.70;1.13;;;;;;;;;;6240265;23;20019;-94
2022/02/05 03:40:51;;;;;;;1.08;0.73;;;;;;;;;;6240818;23;20004;-93
2022/02/05 03:43:17;;;;;;;2.38;1.20;;;;;;;;;;6242643;23;20091;-93
2022/02/05 03:45:43;;;;;;;1.08;0.98;;;;;;;;;;6217803;23;20032;-94
2022/02/05 03:48:09;;;;;;;1.45;1.27;;;;;;;;;;6213248;23;20039;-93
2022/02/05 03:50:35;;;;;;;0.68;0.68;;;;;;;;;;6212479;23;20035;-91
2022/02/05 03:53:07;;;;;;;0.73;0.73;;;;;;;;;;6242215;23;20057;-94
2022/02/05 03:55:33;;;;;;;0.40;0.40;;;;;;;;;;6246005;23;20001;-94
2022/02/05 03:57:59;;;;;;;0.40;0.40;;;;;;;;;;6216853;23;20008;-93
2022/02/05 04:00:25;;;;;;;0.40;0.40;;;;;;;;;;6213450;23;20514;-94
2022/02/05 04:02:51;;;;;;;0.40;0.40;;;;;;;;;;6218314;23;20016;-93
2022/02/05 04:05:18;;;;;;;0.30;0.30;;;;;;;;;;6245604;23;20015;-93
2022/02/05 04:07:48;;;;;;;0.50;0.50;;;;;;;;;;6244940;23;20440;-92
2022/02/05 04:10:20;;;;;;;0.47;0.38;;;;;;;;;;6238752;23;20016;-94
2022/02/05 04:18:36;;;;;;;1.52;1.10;;;;;;;;;;6177283;23;20017;-95
2022/02/05 04:21:03;;;;;;;1.65;1.50;;;;;;;;;;6180015;23;20005;-94
2022/02/05 04:23:29;;;;;;;1.30;1.23;;;;;;;;;;6182283;23;20107;-94
2022/02/05 04:25:55;;;;;;;2.38;1.58;;;;;;;;;;6183537;23;20001;-93
2022/02/05 04:28:21;;;;;;;1.48;1.33;;;;;;;;;;6177988;23;20053;-94
2022/02/05 04:30:47;;;;;;;2.50;2.13;;;;;;;;;;6178637;23;20088;-94
2022/02/05 04:33:13;;;;;;;1.52;1.40;;;;;;;;;;6157324;23;20448;-94
2022/02/05 04:35:43;;;;;;;1.15;0.98;;;;;;;;;;6157149;23;20096;-95
2022/02/05 04:38:09;;;;;;;2.10;1.40;;;;;;;;;;6155678;23;20001;-94
2022/02/05 04:40:52;;;;;;;2.13;1.80;;;;;;;;;;6152559;23;20005;-95
2022/02/05 04:43:40;;;;;;;3.70;2.05;;;;;;;;;;6181962;23;20013;-93
2022/02/05 04:51:50;;;;;;;2.58;1.42;;;;;;;;;;6243740;23;20027;-94
2022/02/05 04:54:37;;;;;;;1.98;1.25;;;;;;;;;;6218173;23;20003;-93
2022/02/05 05:04:50;;;;;;;3.50;0.95;;;;;;;;;;6243208;23;20012;-94
2022/02/05 05:10:22;;;;;;;3.97;1.08;;;;;;;;;;6239144;23;20027;-94
2022/02/05 05:15:30;;;;;;;2.22;1.35;;;;;;;;;;6244194;23;20014;-94
2022/02/05 05:20:50;;;;;;;1.23;0.85;;;;;;;;;;6242322;23;20035;-94
2022/02/05 05:23:16;;;;;;;1.00;0.80;;;;;;;;;;6245225;23;20317;-94
2022/02/05 05:25:42;;;;;;;1.15;0.90;;;;;;;;;;6217289;23;20029;-94
2022/02/05 05:28:08;;;;;;;1.27;1.17;;;;;;;;;;6242235;23;20040;-93
2022/02/05 05:30:34;;;;;;;1.90;0.90;;;;;;;;;;6213078;23;20011;-95
2022/02/05 05:33:00;;;;;;;0.80;0.77;;;;;;;;;;6217052;23;20035;-93
2022/02/05 05:35:26;;;;;;;2.85;1.13;;;;;;;;;;6245165;23;20035;-94
2022/02/05 05:37:52;;;;;;;1.10;1.00;;;;;;;;;;6243756;23;20011;-95
2022/02/05 05:40:19;;;;;;;1.98;0.65;;;;;;;;;;6238551;23;20106;-94
2022/02/05 05:42:52;;;;;;;0.82;0.75;;;;;;;;;;6217444;23;20032;-95
2022/02/05 05:45:33;;;;;;;1.45;0.85;;;;;;;;;;6243922;23;20086;-95
2022/02/05 05:48:10;;;;;;;1.40;0.70;;;;;;;;;;6215975;23;20744;-94
2022/02/05 05:53:09;;;;;;;0.77;0.70;;;;;;;;;;6244140;23;20012;-95
2022/02/05 05:55:35;;;;;;;0.63;0.63;;;;;;;;;;6217430;23;20094;-94
2022/02/05 05:58:01;;;;;;;1.35;0.98;;;;;;;;;;6216083;23;20008;-94
2022/02/05 06:00:28;;;;;;;0.85;0.85;;;;;;;;;;6239333;23;20008;-94
2022/02/05 06:02:54;;;;;;;0.50;0.50;;;;;;;;;;6243275;23;20008;-94
2022/02/05 06:05:20;;;;;;;2.97;0.98;;;;;;;;;;6244863;23;20067;-95
2022/02/05 06:07:49;;;;;;;1.95;0.82;;;;;;;;;;6217298;23;20036;-96
2022/02/05 06:10:15;;;;;;;0.88;0.82;;;;;;;;;;6211573;23;20062;-94
2022/02/05 06:12:41;;;;;;;0.77;0.73;;;;;;;;;;6216134;23;20423;-95
2022/02/05 06:15:08;;;;;;;1.02;0.93;;;;;;;;;;6244648;23;20083;-94
2022/02/05 06:17:35;;;;;;;1.55;0.70;;;;;;;;;;6216326;23;20004;-95
2022/02/05 06:20:01;;;;;;;2.03;1.83;;;;;;;;;;6212687;23;20005;-93
2022/02/05 06:22:27;;;;;;;1.23;0.85;;;;;;;;;;6242816;23;20061;-94
2022/02/05 06:24:53;;;;;;;1.13;0.98;;;;;;;;;;6217478;23;20091;-94
2022/02/05 06:27:19;;;;;;;0.70;0.70;;;;;;;;;;6242824;23;20550;-94
2022/02/05 06:29:45;;;;;;;1.10;0.63;;;;;;;;;;6212232;23;20035;-95
2022/02/05 06:32:15;;;;;;;0.73;0.70;;;;;;;;;;6241723;23;20004;-94
2022/02/05 06:34:41;;;;;;;1.20;0.73;;;;;;;;;;6216390;23;20004;-96
2022/02/05 06:37:07;;;;;;;0.50;0.50;;;;;;;;;;6243874;23;20003;-95
2022/02/05 06:39:33;;;;;;;1.65;1.55;;;;;;;;;;6211590;23;20008;-94
2022/02/05 06:41:59;;;;;;;0.88;0.77;;;;;;;;;;6242013;23;20038;-94
2022/02/05 06:44:25;;;;;;;3.13;0.75;;;;;;;;;;6243975;23;20080;-94
2022/02/05 06:46:51;;;;;;;1.35;0.60;;;;;;;;;;6216568;23;20040;-95
2022/02/05 06:49:19;;;;;;;2.97;0.88;;;;;;;;;;6238797;23;20012;-95
2022/02/05 06:51:45;;;;;;;4.57;1.25;;;;;;;;;;6242663;23;20008;-94
2022/02/05 06:54:11;;;;;;;1.10;0.50;;;;;;;;;;6243375;23;20004;-94
2022/02/05 06:56:37;;;;;;;0.93;0.70;;;;;;;;;;6216267;23;20439;-96
2022/02/05 06:59:04;;;;;;;0.65;0.63;;;;;;;;;;6236748;23;20032;-95
2022/02/05 07:01:29;;;;;;;0.75;0.75;;;;;;;;;;6213090;23;20065;-93
2022/02/05 07:03:56;;;;;;;1.38;0.90;;;;;;;;;;6241615;23;19996;-95
2022/02/05 07:06:22;;;;;;;2.55;1.33;;;;;;;;;;6215014;23;20018;-94
2022/02/05 07:08:48;;;;;;;0.98;0.90;;;;;;;;;;6236751;23;20042;-95
2022/02/05 07:11:14;;;;;;;0.55;0.55;;;;;;;;;;6213608;23;20044;-94
2022/02/05 07:13:40;;;;;;;1.23;0.75;;;;;;;;;;6240624;23;20012;-94
2022/02/05 07:16:24;;;;;;;0.90;0.80;;;;;;;;;;6216049;23;20005;-95
2022/02/05 07:21:21;;;;;;;1.95;1.52;;;;;;;;;;6242230;23;20075;-95
2022/02/05 07:24:09;;;;;;;0.82;0.82;;;;;;;;;;6243491;23;20008;-95
2022/02/05 07:29:21;;;;;;;3.90;0.90;;;;;;;;;;6239960;23;20062;-95
2022/02/05 07:31:54;;;;;;;0.68;0.68;;;;;;;;;;6243172;23;20481;-96
2022/02/05 07:34:24;;;;;;;1.05;0.95;;;;;;;;;;6245294;23;20058;-94
2022/02/05 07:36:50;;;;;;;0.57;0.57;;;;;;;;;;6219408;23;20005;-94
2022/02/05 07:39:17;;;;;;;0.80;0.80;;;;;;;;;;6240960;23;20438;-95
2022/02/05 07:41:44;;;;;;;4.35;1.02;;;;;;;;;;6243240;23;20012;-93
2022/02/05 07:44:15;;;;;;;9.60;0.90;;;;;;;;;;6218891;23;20001;-95
2022/02/05 07:46:47;;;;;;;1.48;0.88;;;;;;;;;;6218477;23;20234;-94
2022/02/05 07:49:17;;;;;;;1.98;1.38;;;;;;;;;;6238815;23;20008;-93
2022/02/05 07:51:46;;;;;;;1.40;0.88;;;;;;;;;;6217015;23;20026;-94
2022/02/05 07:54:13;;;;;;;0.65;0.65;;;;;;;;;;6244775;23;19996;-94
2022/02/05 07:56:43;;;;;;;0.90;0.60;;;;;;;;;;6245578;23;20014;-95
2022/02/05 07:59:10;;;;;;;2.25;0.90;;;;;;;;;;6240072;23;20012;-94
2022/02/05 08:01:38;;;;;;;1.87;0.73;;;;;;;;;;6217079;23;20640;-94
2022/02/05 08:04:05;;;;;;;2.53;1.10;;;;;;;;;;6218557;23;20239;-94
2022/02/05 08:06:32;;;;;;;18.25;6.57;;;;;;;;;;6245477;23;20439;-95
2022/02/05 08:09:05;;;;;;;2.53;2.33;;;;;;;;;;6239972;23;20098;-96
2022/02/05 08:11:37;;;;;;;4.03;2.08;;;;;;;;;;6217770;23;20000;-95
2022/02/05 08:14:09;;;;;;;5.13;3.38;;;;;;;;;;6245042;23;20015;-96
2022/02/05 08:19:13;;;;;;;1.75;1.02;;;;;;;;;;6239807;23;20012;-96
2022/02/05 08:21:39;;;;;;;11.30;2.50;;;;;;;;;;6217492;23;20044;-95
2022/02/05 08:24:06;;;;;;;2.40;1.50;;;;;;;;;;6244653;23;20082;-94
2022/02/05 08:26:32;;;;;;;5.13;1.70;;;;;;;;;;6246240;23;20008;-95
2022/02/05 08:29:03;;;;;;;10.52;3.13;;;;;;;;;;6239918;23;20030;-93
2022/02/05 08:31:29;;;;;;;10.35;4.68;;;;;;;;;;6243352;23;20012;-93
2022/02/05 08:33:55;;;;;;;10.43;4.43;;;;;;;;;;6245407;23;20569;-94
2022/02/05 08:36:23;;;;;;;9.05;3.67;;;;;;;;;;6243932;23;20435;-91
2022/02/05 08:38:50;;;;;;;7.97;3.22;;;;;;;;;;6239181;23;20008;-93
2022/02/05 08:41:16;;;;;;;5.53;1.13;;;;;;;;;;6243428;23;20036;-92
2022/02/05 08:43:42;;;;;;;1.38;1.27;;;;;;;;;;6244671;23;20457;-91
2022/02/05 08:46:08;;;;;;;1.25;0.88;;;;;;;;;;6247028;23;19996;-92
2022/02/05 08:48:34;;;;;;;5.88;1.50;;;;;;;;;;6213715;23;20008;-94
2022/02/05 08:51:00;;;;;;;1.40;1.02;;;;;;;;;;6245429;23;20050;-93
2022/02/05 08:53:27;;;;;;;1.23;0.73;;;;;;;;;;6246583;23;20001;-92
2022/02/05 08:55:53;;;;;;;1.27;0.98;;;;;;;;;;6220339;23;20005;-91
2022/02/05 08:58:20;;;;;;;1.95;1.40;;;;;;;;;;6217534;23;20012;-91
2022/02/05 09:00:48;;;;;;;2.28;0.73;;;;;;;;;;6242875;23;20000;-92
2022/02/05 09:03:29;;;;;;;1.65;1.00;;;;;;;;;;6219190;23;20008;-92
2022/02/05 09:05:56;;;;;;;3.83;1.25;;;;;;;;;;6246695;23;20058;-92
2022/02/05 09:08:30;;;;;;;3.50;1.27;;;;;;;;;;6243811;23;20012;-94
2022/02/05 09:11:05;;;;;;;5.78;1.20;;;;;;;;;;6244199;23;20474;-94
2022/02/05 09:16:01;;;;;;;0.98;0.82;;;;;;;;;;6246313;23;20008;-93
2022/02/05 09:18:30;;;;;;;4.13;1.58;;;;;;;;;;6215650;23;20008;-95
2022/02/05 09:20:56;;;;;;;2.65;1.15;;;;;;;;;;6243098;23;20008;-92
2022/02/05 09:23:22;;;;;;;7.15;1.45;;;;;;;;;;6245300;23;20031;-93
2022/02/05 09:25:49;;;;;;;1.40;1.30;;;;;;;;;;6218552;23;20083;-93
2022/02/05 09:28:15;;;;;;;6.05;1.58;;;;;;;;;;6216542;23;20016;-92
2022/02/05 09:31:00;;;;;;;3.00;1.25;;;;;;;;;;6212954;23;20014;-95
2022/02/05 09:33:27;;;;;;;5.07;2.72;;;;;;;;;;6243662;23;20007;-94
2022/02/05 09:35:53;;;;;;;2.55;0.73;;;;;;;;;;6244875;23;21295;-91
2022/02/05 09:38:19;;;;;;;1.60;1.30;;;;;;;;;;6214552;23;20066;-94
2022/02/05 09:40:45;;;;;;;2.60;0.85;;;;;;;;;;6240171;23;20019;-92
2022/02/05 09:43:11;;;;;;;1.10;1.00;;;;;;;;;;6217021;23;20019;-91
2022/02/05 09:45:37;;;;;;;1.48;1.10;;;;;;;;;;6217292;23;20000;-92
2022/02/05 09:48:03;;;;;;;1.30;0.70;;;;;;;;;;6215921;23;20451;-93
2022/02/05 09:50:31;;;;;;;0.50;0.50;;;;;;;;;;6239926;23;20000;-92
2022/02/05 09:53:02;;;;;;;2.85;1.13;;;;;;;;;;6216691;23;20016;-94
2022/02/05 09:55:28;;;;;;;4.35;2.55;;;;;;;;;;6244267;23;20008;-93
2022/02/05 09:57:55;;;;;;;2.45;2.30;;;;;;;;;;6242781;23;20008;-93
2022/02/05 10:00:22;;;;;;;1.40;0.80;;;;;;;;;;6213014;23;20000;-92
2022/02/05 10:02:56;;;;;;;0.75;0.30;;;;;;;;;;6215942;23;20516;-93
2022/02/05 10:05:29;;;;;;;0.95;0.75;;;;;;;;;;6243552;23;20008;-93
2022/02/05 10:07:56;;;;;;;3.75;0.90;;;;;;;;;;6242252;23;20095;-92
2022/02/05 10:10:23;;;;;;;1.13;0.52;;;;;;;;;;6239840;23;20020;-94
2022/02/05 10:13:08;;;;;;;1.63;1.23;;;;;;;;;;6214381;23;20007;-93
2022/02/05 10:15:35;;;;;;;5.57;0.73;;;;;;;;;;6244070;23;20011;-91
2022/02/05 10:18:03;;;;;;;2.22;0.80;;;;;;;;;;6242165;23;20000;-95
2022/02/05 10:20:29;;;;;;;7.53;0.60;;;;;;;;;;6238605;23;20015;-92
2022/02/05 10:22:56;;;;;;;0.88;0.52;;;;;;;;;;6243370;23;20022;-94
2022/02/05 10:25:27;;;;;;;0.75;0.68;;;;;;;;;;6217249;23;20017;-94
2022/02/05 10:27:54;;;;;;;1.00;0.90;;;;;;;;;;6242407;23;20024;-90
2022/02/05 10:30:24;;;;;;;1.70;1.40;;;;;;;;;;6239327;23;20004;-93
2022/02/05 10:33:01;;;;;;;3.53;0.73;;;;;;;;;;6214832;23;20047;-95
2022/02/05 10:35:35;;;;;;;6.53;2.10;;;;;;;;;;6216212;23;20008;-92
2022/02/05 10:41:01;;;;;;;6.28;1.02;;;;;;;;;;6240718;23;20015;-93
2022/02/05 10:43:34;;;;;;;1.00;0.93;;;;;;;;;;6243362;23;20000;-96
2022/02/05 10:46:04;;;;;;;4.97;1.05;;;;;;;;;;6244093;23;20007;-94
2022/02/05 10:48:31;;;;;;;4.00;1.00;;;;;;;;;;6213013;23;20031;-95
2022/02/05 10:51:00;;;;;;;10.88;1.95;;;;;;;;;;6214845;23;20008;-95
2022/02/05 10:53:34;;;;;;;0.65;0.65;;;;;;;;;;6217148;23;20087;-96
2022/02/05 10:56:14;;;;;;;1.05;0.82;;;;;;;;;;6243983;23;20079;-95
2022/02/05 11:07:09;;;;;;;0.60;0.52;;;;;;;;;;6243735;23;20548;-95
2022/02/05 11:09:38;;;;;;;0.90;0.60;;;;;;;;;;6212615;23;20099;-94
2022/02/05 11:20:21;;;;;;;5.07;2.38;;;;;;;;;;6238514;23;20376;-95
2022/02/05 11:22:58;;;;;;;5.13;2.60;;;;;;;;;;6241742;22;20018;-94
2022/02/05 11:25:24;;;;;;;1.45;0.88;;;;;;;;;;6243282;23;20004;-94
2022/02/05 11:27:52;;;;;;;4.10;0.90;;;;;;;;;;6242540;23;20335;-95
2022/02/05 11:30:31;;;;;;;0.70;0.70;;;;;;;;;;6238319;23;20000;-94
2022/02/05 11:33:01;;;;;;;0.98;0.50;;;;;;;;;;6214714;23;20083;-95
2022/02/05 11:35:41;;;;;;;1.33;1.23;;;;;;;;;;6215380;23;20020;-96
2022/02/05 11:38:09;;;;;;;1.75;0.80;;;;;;;;;;6241080;23;20004;-95
2022/02/05 11:40:42;;;;;;;1.73;0.60;;;;;;;;;;6212941;23;20031;-94
2022/02/05 11:43:17;;;;;;;1.08;0.70;;;;;;;;;;6242567;23;20008;-95
2022/02/05 11:45:43;;;;;;;3.33;1.45;;;;;;;;;;6242720;23;20083;-95
2022/02/05 11:48:28;;;;;;;0.30;0.30;;;;;;;;;;6213333;23;20015;-95
2022/02/05 11:51:10;;;;;;;0.73;0.65;;;;;;;;;;6240680;23;20005;-93
2022/02/05 11:53:54;;;;;;;0.40;0.40;;;;;;;;;;6216010;23;20005;-94
2022/02/05 11:56:21;;;;;;;4.68;0.80;;;;;;;;;;6242336;23;20001;-95
2022/02/05 11:59:07;;;;;;;1.38;0.65;;;;;;;;;;6211106;23;20713;-95
2022/02/05 12:01:34;;;;;;;0.40;0.40;;;;;;;;;;6241638;23;20139;-94
2022/02/05 12:04:10;;;;;;;2.13;0.52;;;;;;;;;;6242188;23;20004;-96
2022/02/05 12:06:48;;;;;;;8.82;1.08;;;;;;;;;;6242500;23;20134;-94
2022/02/05 12:09:33;;;;;;;1.85;0.85;;;;;;;;;;6236790;23;20020;-95
2022/02/05 12:12:17;;;;;;;7.03;1.52;;;;;;;;;;6240971;23;20007;-93
2022/02/05 12:15:08;;;;;;;3.53;1.30;;;15.50;43.20;;;;;;6217204;23;20089;-94
2022/02/05 12:20:51;;;;;;;3.38;1.15;;;;;;;;;;6149673;23;20064;-94
2022/02/05 12:25:59;;;;;;;0.60;0.60;;;;;;;;;;6152115;23;20064;-94
2022/02/05 12:28:36;;;;;;;2.92;0.70;;;;;;;;;;6148337;23;20071;-94
2022/02/05 12:31:03;;;;;;;0.70;0.70;;;;;;;;;;6149934;23;20084;-92
2022/02/05 12:33:45;;;;;;;0.60;0.60;;;;;;;;;;6151850;23;20371;-93
2022/02/05 12:36:11;;;;;;;3.13;0.77;;;;;;;;;;6151281;23;20005;-95
2022/02/05 12:38:38;;;;;;;3.17;1.45;;;;;;;;;;6147022;23;20017;-92
2022/02/05 12:41:06;;;;;;;3.30;0.88;;;;;;;;;;6149983;23;20031;-92
2022/02/05 12:43:48;;;;;;;1.50;1.40;;;;;;;;;;6151495;23;20330;-95
2022/02/05 12:46:14;;;;;;;1.08;0.80;;;;;;;;;;6151652;23;20013;-94
2022/02/05 12:48:41;;;;;;;2.05;0.95;;;;;;;;;;6146539;23;20420;-94
2022/02/05 12:51:07;;;;;;;1.75;1.00;;;;;;;;;;6150384;23;20260;-93
2022/02/05 12:53:39;;;;;;;1.27;1.15;;;;;;;;;;6159730;23;20037;-94
2022/02/05 12:56:19;;;;;;;2.50;0.68;;;;;;;;;;6245043;23;20010;-90
2022/02/05 12:58:52;;;;;;;4.78;1.20;;;;;;;;;;6239257;23;20000;-93
2022/02/05 13:01:18;;;;;;;1.58;1.13;;;;;;;;;;6216389;23;20004;-93
2022/02/05 13:03:44;;;;;;;1.85;1.20;;;;;;;;;;6242381;23;20087;-94
2022/02/05 13:06:20;;;;;;;1.27;1.17;;;;;;;;;;6219857;23;20005;-95
2022/02/05 13:08:47;;;;;;;3.10;1.23;;;;;;;;;;6219571;23;20090;-94
2022/02/05 13:11:13;;;;;;;2.30;1.55;;;;;;;;;;6246832;23;20431;-94
2022/02/05 13:13:49;;;;;;;4.63;1.45;;;;;;;;;;6216310;23;20012;-94
2022/02/05 13:16:15;;;;;;;1.52;0.90;;;;;;;;;;6248048;23;20004;-92
2022/02/05 13:18:48;;;;;;;3.78;1.17;;;;;;;;;;6245423;23;20304;-94
2022/02/05 13:26:58;;;;;;;8.00;5.35;;;;;;;;;;6246146;23;20055;-94
2022/02/05 13:29:43;;;;;;;1.15;1.05;;;;;;;;;;6246664;23;20004;-94
2022/02/05 13:35:02;;;;;;;1.50;1.40;;;;;;;;;;6245995;23;20023;-95
2022/02/05 13:37:33;;;;;;;0.73;0.60;;;;;;;;;;6243942;23;20062;-94
2022/02/05 13:40:04;;;;;;;0.50;0.50;;;;;;;;;;6245052;23;20019;-95
2022/02/05 13:42:37;;;;;;;1.95;1.15;;;;;;;;;;6243641;23;20012;-94
2022/02/05 13:45:13;;;;;;;0.77;0.75;;;;;;;;;;6244305;23;20004;-95
2022/02/05 13:47:45;;;;;;;1.13;1.00;;;;;;;;;;6243635;23;20008;-94
2022/02/05 13:50:16;;;;;;;2.03;0.80;;;;;;;;;;6243622;23;20016;-94
2022/02/05 13:52:48;;;;;;;0.73;0.70;;;;;;;;;;6216449;23;20091;-95
2022/02/05 13:55:17;;;;;;;1.30;0.80;;;;;;;;;;6244706;23;20027;-92
2022/02/05 13:57:59;;;;;;;0.50;0.50;;;;;;;;;;6219005;23;20008;-94
2022/02/05 14:00:36;;;;;;;0.50;0.50;;;;;;;;;;6219361;23;20000;-94
2022/02/05 14:03:03;;;;;;;;;;;12.10;41.70;;;;;;6219288;23;20103;-94
2022/02/05 14:05:29;;;;;;;0.55;0.55;;;;;;;;;;6219555;23;19899;-94
2022/02/05 14:07:55;;;;;;;0.73;0.73;;;;;;;;;;6246340;23;20007;-95
2022/02/05 14:10:22;;;;;;;0.50;0.50;;;;;;;;;;6245956;23;20016;-93
2022/02/05 14:12:55;;;;;;;1.00;0.52;;;;;;;;;;6245884;23;20054;-94
2022/02/05 14:15:26;;;;;;;0.52;0.52;;;;;;;;;;6246178;23;20004;-93
2022/02/05 14:18:14;;;;;;;4.13;0.82;;;;;;;;;;6246036;23;20000;-93
2022/02/05 14:20:53;;;;;;;2.58;0.85;;;;;;;;;;6245752;23;20000;-96
2022/02/05 14:23:21;;;;;;;3.22;0.60;;;;;;;;;;6246064;23;20489;-95
2022/02/05 14:26:02;;;;;;;0.95;0.85;;;;;;;;;;6246078;23;20027;-94
2022/02/05 14:28:33;;;;;;;0.80;0.57;;;;;;;;;;6219297;23;20011;-93
2022/02/05 14:31:14;;;;;;;2.80;0.70;;;;;;;;;;6245848;23;20008;-95
2022/02/05 14:41:57;;;;;;;2.78;1.48;;;;;;;;;;6245322;23;20041;-94
2022/02/05 14:44:23;;;;;;;2.58;0.70;;;;;;;;;;6219057;23;20386;-94
2022/02/05 14:46:49;;;;;;;5.82;0.80;;;;;;;;;;6219029;23;20058;-94
2022/02/05 14:49:16;;;;;;;1.83;0.88;;;;;;;;;;6245889;23;20046;-95
2022/02/05 14:51:42;;;;;;;1.77;1.67;;;;;;;;;;6245494;23;20004;-95
2022/02/05 14:54:09;;;;;;;1.70;0.93;;;;;;;;;;6218748;23;20007;-94
2022/02/05 14:56:35;;;;;;;1.00;0.95;;;;;;;;;;6245191;23;20239;-94
2022/02/05 14:59:01;;;;;;;2.00;0.93;;;;;;;;;;6218766;23;19996;-94
2022/02/05 15:01:27;;;;;;;4.50;1.05;;;;;;;;;;6218614;23;20016;-95
2022/02/05 15:03:55;;;;;;;1.33;1.10;;;;;;;;;;6245170;23;20004;-95
2022/02/05 15:06:25;;;;;;;4.13;1.77;;;;;;;;;;6245539;23;20000;-94
2022/02/05 15:08:51;;;;;;;1.20;0.93;;;;;;;;;;6245020;23;20061;-95
2022/02/05 15:11:18;;;;;;;7.88;1.10;;;;;;;;;;6245287;23;20019;-95
2022/02/05 15:13:44;;;;;;;0.90;0.70;;;;;;;;;;6245463;23;20004;-96
2022/02/05 15:16:11;;;;;;;4.80;1.27;;;;;;;;;;6245698;23;20008;-95
2022/02/05 15:18:40;;;;;;;;;;;11.60;53.00;;;;;;6246105;23;20008;-94
2022/02/05 15:21:07;;;;;;;2.80;0.68;;;;;;;;;;6245379;23;19911;-95
2022/02/05 15:23:33;;;;;;;3.15;0.80;;;;;;;;;;6244887;23;20487;-95
2022/02/05 15:26:03;;;;;;;2.28;1.00;;;;;;;;;;6218234;23;20015;-95
2022/02/05 15:28:30;;;;;;;2.28;1.00;;;;;;;;;;6245582;23;20008;-95
2022/02/05 15:30:56;;;;;;;0.77;0.77;;;;;;;;;;6245277;23;20026;-94
2022/02/05 15:33:23;;;;;;;1.63;1.02;;;;;;;;;;6245145;23;20014;-95
2022/02/05 15:35:51;;;;;;;1.33;0.75;;;;;;;;;;6245535;23;20000;-94
2022/02/05 15:38:24;;;;;;;3.25;1.35;;;;;;;;;;6218420;23;20012;-96
2022/02/05 15:43:52;;;;;;;5.90;2.13;;;;;;;;;;6245271;23;20092;-95
2022/02/05 15:46:19;;;;;;;1.85;1.10;;;;;;;;;;6245815;23;20004;-96
2022/02/05 15:48:45;;;;;;;1.45;1.23;;;;;;;;;;6219012;23;20008;-96
2022/02/05 15:51:11;;;;;;;1.13;0.88;;;;;;;;;;6247381;23;20026;-96
2022/02/05 15:53:47;;;;;;;1.75;1.30;;;;;;;;;;6247823;23;20418;-95
2022/02/05 15:56:26;;;;;;;2.08;1.25;;;;;;;;;;6247432;23;20015;-94
2022/02/05 15:58:53;;;;;;;1.33;1.13;;;;;;;;;;6247680;23;19999;-95
2022/02/05 16:01:19;;;;;;;;;;;10.50;59.40;;;;;;6247673;23;20004;-95
2022/02/05 16:03:45;;;;;;;10.50;1.40;;;;;;;;;;6246208;23;19899;-94
2022/02/05 16:06:11;;;;;;;7.35;1.20;;;;;;;;;;6221729;23;20091;-96
2022/02/05 16:08:37;;;;;;;1.20;1.13;;;;;;;;;;6220138;23;20050;-94
2022/02/05 16:11:03;;;;;;;2.78;1.38;;;;;;;;;;6251990;23;20035;-93
2022/02/05 16:13:29;;;;;;;1.20;0.93;;;;;;;;;;6249693;23;20004;-96
2022/02/05 16:15:56;;;;;;;5.88;1.63;;;;;;;;;;6248614;23;19996;-96
2022/02/05 16:18:23;;;;;;;1.50;1.08;;;;;;;;;;6248111;23;20008;-96
2022/02/05 16:20:49;;;;;;;;;;;;;;;;;;6247941;23;20761;-95
2022/02/05 16:23:15;;;;;;;3.40;2.17;;;;;;;;;;6220931;23;19909;-95
2022/02/05 16:25:41;;;;;;;35.33;13.10;;;;;;;;;;6248579;23;20004;-96
2022/02/05 16:28:08;;;;;;;13.02;6.82;;;;;;;;;;6221096;23;20365;-96
2022/02/05 16:30:37;;;;;;;10.40;5.80;;;;;;;;;;6249260;23;20001;-96
2022/02/05 16:33:09;;;;;;;14.27;5.68;;;;;;;;;;6248927;23;20001;-95
2022/02/05 16:35:43;;;;;;;11.70;4.88;;;;;;;;;;6247805;23;20008;-96
2022/02/05 16:38:17;;;;;;;6.50;3.45;;;;;;;;;;6248715;23;20012;-96
2022/02/05 16:40:43;;;;;;;5.78;1.73;;;;;;;;;;6248406;23;20050;-96
2022/02/05 16:43:09;;;;;;;1.00;0.90;;;;;;;;;;6219914;23;20040;-97
2022/02/05 16:48:20;;;;;;;2.72;1.77;;;;;;;;;;6246774;22;20454;-96
2022/02/05 16:53:22;;;;;;;4.90;2.17;;;;;;;;;;6245027;22;20027;-94
2022/02/05 16:55:48;;;;;;;5.55;1.90;;;;;;;;;;6246784;23;20338;-94
2022/02/05 16:58:14;;;;;;;2.97;1.35;;;;;;;;;;6246895;23;20000;-94
2022/02/05 17:00:40;;;;;;;19.13;4.95;;;;;;;;;;6246132;23;20087;-94
2022/02/05 17:03:07;;;;;;;3.75;1.52;;;;;;;;;;6245308;23;20070;-95
2022/02/05 17:05:38;;;;;;;5.65;2.75;;;;;;;;;;6246443;23;20012;-95
2022/02/05 17:08:06;;;;;;;4.47;2.10;;;;;;;;;;6246775;23;20015;-95
2022/02/05 17:10:33;;;;;;;3.50;2.38;;;;;;;;;;6246627;23;20406;-94
2022/02/05 17:12:59;;;;;;;3.10;1.33;;;;;;;;;;6246697;23;20011;-95
2022/02/05 17:15:26;;;;;;;2.33;1.35;;;;;;;;;;6247709;23;20004;-95
2022/02/05 17:18:35;;;;;;;6.40;2.08;;;;;;;;;;6246751;23;20096;-94
2022/02/05 17:20:43;;;;;;;7.63;1.33;;;;;;;;;;6237262;23;20079;-94
2022/02/05 17:23:09;;;;;;;1.58;1.30;;;;;;;;;;6246613;23;20009;-95
2022/02/05 17:25:36;;;;;;;2.05;1.30;;;;;;;;;;6246298;23;20454;-96
2022/02/05 17:28:04;;;;;;;2.53;1.13;;;;;;;;;;6246421;23;20008;-94
2022/02/05 17:30:30;;;;;;;;;;;;;;;;;;6220178;23;20000;-95
2022/02/05 17:32:56;;;;;;;2.67;1.63;;;;;;;;;;6245856;23;20671;-94
2022/02/05 17:35:26;;;;;;;5.38;2.03;;;;;;;;;;6246438;23;20087;-94
2022/02/05 17:37:52;;;;;;;7.15;2.33;;;;;;;;;;6245822;23;20004;-93